sensor_id;sensor_type;location;lat;lon;timestamp;pressure;altitude;pressure_sealevel;temperature;humidity
77855;BME280;67046;50.088;14.336;2023-06-14T00:00:28;97376.85;;;13.88;66.16
77855;BME280;67046;50.088;14.336;2023-06-14T00:01:20;97380.62;;;13.84;66.11
77855;BME280;67046;50.088;14.336;2023-06-14T00:01:53;97381.73;;;13.81;66.06
77855;BME280;67046;50.088;14.336;2023-06-14T00:02:25;97378.10;;;13.79;66.18
77855;BME280;67046;50.088;14.336;2023-06-14T00:02:57;97382.68;;;13.77;66.20
77855;BME280;67046;50.088;14.336;2023-06-14T00:03:30;97381.70;;;13.75;66.20
77855;BME280;67046;50.088;14.336;2023-06-14T00:04:04;97381.23;;;13.74;66.29
77855;BME280;67046;50.088;14.336;2023-06-14T00:04:40;97380.16;;;13.71;66.36
77855;BME280;67046;50.088;14.336;2023-06-14T00:05:13;97382.92;;;13.69;66.24
77855;BME280;67046;50.088;14.336;2023-06-14T00:05:45;97384.92;;;13.68;66.52
77855;BME280;67046;50.088;14.336;2023-06-14T00:06:18;97385.36;;;13.67;66.45
77855;BME280;67046;50.088;14.336;2023-06-14T00:06:50;97385.81;;;13.64;66.54
77855;BME280;67046;50.088;14.336;2023-06-14T00:07:34;97384.21;;;13.62;66.49
77855;BME280;67046;50.088;14.336;2023-06-14T00:08:07;97383.78;;;13.59;66.79
77855;BME280;67046;50.088;14.336;2023-06-14T00:08:40;97380.69;;;13.56;66.72
77855;BME280;67046;50.088;14.336;2023-06-14T00:09:12;97379.67;;;13.56;66.79
77855;BME280;67046;50.088;14.336;2023-06-14T00:09:49;97381.33;;;13.57;66.91
77855;BME280;67046;50.088;14.336;2023-06-14T00:10:21;97382.98;;;13.56;66.74
77855;BME280;67046;50.088;14.336;2023-06-14T00:10:53;97380.64;;;13.55;66.92
77855;BME280;67046;50.088;14.336;2023-06-14T00:11:25;97382.80;;;13.54;66.82
77855;BME280;67046;50.088;14.336;2023-06-14T00:11:58;97380.58;;;13.53;66.84
77855;BME280;67046;50.088;14.336;2023-06-14T00:12:30;97381.90;;;13.53;66.91
77855;BME280;67046;50.088;14.336;2023-06-14T00:13:03;97379.88;;;13.52;67.04
77855;BME280;67046;50.088;14.336;2023-06-14T00:13:36;97383.54;;;13.52;67.06
77855;BME280;67046;50.088;14.336;2023-06-14T00:14:08;97379.20;;;13.52;66.83
77855;BME280;67046;50.088;14.336;2023-06-14T00:14:40;97384.02;;;13.53;67.01
77855;BME280;67046;50.088;14.336;2023-06-14T00:15:12;97383.02;;;13.52;66.95
77855;BME280;67046;50.088;14.336;2023-06-14T00:15:45;97382.80;;;13.53;66.85
77855;BME280;67046;50.088;14.336;2023-06-14T00:16:18;97382.22;;;13.53;67.13
77855;BME280;67046;50.088;14.336;2023-06-14T00:16:51;97381.84;;;13.53;66.91
77855;BME280;67046;50.088;14.336;2023-06-14T00:17:24;97382.33;;;13.52;66.86
77855;BME280;67046;50.088;14.336;2023-06-14T00:17:57;97384.34;;;13.53;66.91
77855;BME280;67046;50.088;14.336;2023-06-14T00:18:32;97384.61;;;13.53;66.77
77855;BME280;67046;50.088;14.336;2023-06-14T00:19:04;97384.02;;;13.52;66.90
77855;BME280;67046;50.088;14.336;2023-06-14T00:19:36;97381.41;;;13.52;66.98
77855;BME280;67046;50.088;14.336;2023-06-14T00:20:08;97383.05;;;13.51;67.18
77855;BME280;67046;50.088;14.336;2023-06-14T00:20:41;97383.99;;;13.49;67.33
77855;BME280;67046;50.088;14.336;2023-06-14T00:21:14;97383.41;;;13.47;67.25
77855;BME280;67046;50.088;14.336;2023-06-14T00:21:46;97382.35;;;13.46;67.04
77855;BME280;67046;50.088;14.336;2023-06-14T00:22:18;97385.27;;;13.46;67.31
77855;BME280;67046;50.088;14.336;2023-06-14T00:22:50;97380.63;;;13.42;67.27
77855;BME280;67046;50.088;14.336;2023-06-14T00:23:22;97380.42;;;13.42;67.42
77855;BME280;67046;50.088;14.336;2023-06-14T00:23:54;97382.44;;;13.41;67.23
77855;BME280;67046;50.088;14.336;2023-06-14T00:24:27;97381.84;;;13.42;67.32
77855;BME280;67046;50.088;14.336;2023-06-14T00:24:59;97378.56;;;13.41;67.40
77855;BME280;67046;50.088;14.336;2023-06-14T00:25:31;97385.67;;;13.42;67.42
77855;BME280;67046;50.088;14.336;2023-06-14T00:26:03;97382.11;;;13.42;67.48
77855;BME280;67046;50.088;14.336;2023-06-14T00:26:35;97383.92;;;13.42;67.47
77855;BME280;67046;50.088;14.336;2023-06-14T00:27:07;97381.54;;;13.41;67.62
77855;BME280;67046;50.088;14.336;2023-06-14T00:27:39;97381.69;;;13.42;67.49
77855;BME280;67046;50.088;14.336;2023-06-14T00:28:11;97382.27;;;13.41;67.57
77855;BME280;67046;50.088;14.336;2023-06-14T00:28:43;97382.66;;;13.41;67.52
77855;BME280;67046;50.088;14.336;2023-06-14T00:29:15;97383.23;;;13.41;67.55
77855;BME280;67046;50.088;14.336;2023-06-14T00:29:47;97381.32;;;13.41;67.61
77855;BME280;67046;50.088;14.336;2023-06-14T00:30:19;97380.84;;;13.40;67.53
77855;BME280;67046;50.088;14.336;2023-06-14T00:30:51;97380.63;;;13.41;67.69
77855;BME280;67046;50.088;14.336;2023-06-14T00:31:23;97379.13;;;13.40;67.57
77855;BME280;67046;50.088;14.336;2023-06-14T00:31:55;97381.30;;;13.40;67.51
77855;BME280;67046;50.088;14.336;2023-06-14T00:32:27;97381.73;;;13.39;67.43
77855;BME280;67046;50.088;14.336;2023-06-14T00:32:59;97377.85;;;13.39;67.67
77855;BME280;67046;50.088;14.336;2023-06-14T00:33:32;97379.87;;;13.39;67.68
77855;BME280;67046;50.088;14.336;2023-06-14T00:34:04;97379.86;;;13.39;67.61
77855;BME280;67046;50.088;14.336;2023-06-14T00:34:36;97381.04;;;13.38;67.38
77855;BME280;67046;50.088;14.336;2023-06-14T00:35:08;97383.48;;;13.39;67.49
77855;BME280;67046;50.088;14.336;2023-06-14T00:35:41;97378.12;;;13.38;67.41
77855;BME280;67046;50.088;14.336;2023-06-14T00:36:13;97378.22;;;13.37;67.57
77855;BME280;67046;50.088;14.336;2023-06-14T00:36:45;97376.31;;;13.37;67.52
77855;BME280;67046;50.088;14.336;2023-06-14T00:37:17;97373.66;;;13.37;67.51
77855;BME280;67046;50.088;14.336;2023-06-14T00:37:49;97374.39;;;13.36;67.64
77855;BME280;67046;50.088;14.336;2023-06-14T00:38:21;97378.54;;;13.36;67.23
77855;BME280;67046;50.088;14.336;2023-06-14T00:38:53;97377.05;;;13.37;67.47
77855;BME280;67046;50.088;14.336;2023-06-14T00:39:24;97373.70;;;13.36;67.54
77855;BME280;67046;50.088;14.336;2023-06-14T00:39:56;97378.59;;;13.37;67.36
77855;BME280;67046;50.088;14.336;2023-06-14T00:40:28;97375.83;;;13.38;67.49
77855;BME280;67046;50.088;14.336;2023-06-14T00:41:00;97372.06;;;13.37;67.57
77855;BME280;67046;50.088;14.336;2023-06-14T00:41:32;97377.48;;;13.38;67.37
77855;BME280;67046;50.088;14.336;2023-06-14T00:42:05;97374.94;;;13.39;67.47
77855;BME280;67046;50.088;14.336;2023-06-14T00:42:37;97378.17;;;13.40;67.19
77855;BME280;67046;50.088;14.336;2023-06-14T00:43:10;97375.26;;;13.40;67.09
77855;BME280;67046;50.088;14.336;2023-06-14T00:43:42;97374.05;;;13.41;67.28
77855;BME280;67046;50.088;14.336;2023-06-14T00:44:16;97374.63;;;13.42;67.21
77855;BME280;67046;50.088;14.336;2023-06-14T00:44:48;97378.83;;;13.42;67.13
77855;BME280;67046;50.088;14.336;2023-06-14T00:45:20;97376.17;;;13.42;67.08
77855;BME280;67046;50.088;14.336;2023-06-14T00:45:52;97378.08;;;13.42;67.20
77855;BME280;67046;50.088;14.336;2023-06-14T00:46:24;97380.14;;;13.42;67.13
77855;BME280;67046;50.088;14.336;2023-06-14T00:46:57;97382.23;;;13.43;67.17
77855;BME280;67046;50.088;14.336;2023-06-14T00:47:29;97379.14;;;13.42;67.28
77855;BME280;67046;50.088;14.336;2023-06-14T00:48:01;97380.64;;;13.42;67.19
77855;BME280;67046;50.088;14.336;2023-06-14T00:48:35;97382.45;;;13.42;67.24
77855;BME280;67046;50.088;14.336;2023-06-14T00:49:08;97382.80;;;13.41;67.11
77855;BME280;67046;50.088;14.336;2023-06-14T00:49:41;97385.89;;;13.42;67.01
77855;BME280;67046;50.088;14.336;2023-06-14T00:50:13;97385.14;;;13.42;67.04
77855;BME280;67046;50.088;14.336;2023-06-14T00:50:46;97384.60;;;13.42;67.02
77855;BME280;67046;50.088;14.336;2023-06-14T00:51:20;97384.35;;;13.42;67.08
77855;BME280;67046;50.088;14.336;2023-06-14T00:51:52;97380.53;;;13.41;66.99
77855;BME280;67046;50.088;14.336;2023-06-14T00:52:24;97383.49;;;13.40;67.10
77855;BME280;67046;50.088;14.336;2023-06-14T00:52:56;97387.20;;;13.39;66.89
77855;BME280;67046;50.088;14.336;2023-06-14T00:53:30;97380.92;;;13.38;66.85
77855;BME280;67046;50.088;14.336;2023-06-14T00:54:03;97385.55;;;13.39;66.81
77855;BME280;67046;50.088;14.336;2023-06-14T00:54:35;97381.25;;;13.38;66.97
77855;BME280;67046;50.088;14.336;2023-06-14T00:55:07;97383.75;;;13.38;67.18
77855;BME280;67046;50.088;14.336;2023-06-14T00:55:39;97379.33;;;13.37;67.06
77855;BME280;67046;50.088;14.336;2023-06-14T00:56:12;97381.94;;;13.36;67.08
77855;BME280;67046;50.088;14.336;2023-06-14T00:56:45;97378.16;;;13.35;66.93
77855;BME280;67046;50.088;14.336;2023-06-14T00:57:17;97379.42;;;13.34;67.08
77855;BME280;67046;50.088;14.336;2023-06-14T00:57:49;97378.36;;;13.33;66.89
77855;BME280;67046;50.088;14.336;2023-06-14T00:58:22;97375.50;;;13.32;66.84
77855;BME280;67046;50.088;14.336;2023-06-14T00:58:56;97377.17;;;13.31;67.01
77855;BME280;67046;50.088;14.336;2023-06-14T00:59:28;97378.51;;;13.29;66.93
77855;BME280;67046;50.088;14.336;2023-06-14T01:00:00;97376.95;;;13.29;66.94
77855;BME280;67046;50.088;14.336;2023-06-14T01:00:32;97377.10;;;13.28;66.77
77855;BME280;67046;50.088;14.336;2023-06-14T01:01:04;97375.41;;;13.27;66.87
77855;BME280;67046;50.088;14.336;2023-06-14T01:01:36;97379.14;;;13.27;66.72
77855;BME280;67046;50.088;14.336;2023-06-14T01:02:09;97375.35;;;13.28;66.80
77855;BME280;67046;50.088;14.336;2023-06-14T01:02:41;97375.38;;;13.27;66.95
77855;BME280;67046;50.088;14.336;2023-06-14T01:03:14;97374.77;;;13.28;66.81
77855;BME280;67046;50.088;14.336;2023-06-14T01:03:51;97375.25;;;13.28;66.81
77855;BME280;67046;50.088;14.336;2023-06-14T01:04:23;97371.54;;;13.28;66.45
77855;BME280;67046;50.088;14.336;2023-06-14T01:04:55;97375.16;;;13.29;66.53
77855;BME280;67046;50.088;14.336;2023-06-14T01:05:29;97373.09;;;13.30;66.35
77855;BME280;67046;50.088;14.336;2023-06-14T01:07:05;97373.77;;;13.29;66.50
77855;BME280;67046;50.088;14.336;2023-06-14T01:08:19;97373.88;;;13.27;66.48
77855;BME280;67046;50.088;14.336;2023-06-14T01:11:13;97369.86;;;13.21;66.40
77855;BME280;67046;50.088;14.336;2023-06-14T01:11:59;97370.51;;;13.20;66.34
77855;BME280;67046;50.088;14.336;2023-06-14T01:12:44;97370.70;;;13.21;66.39
77855;BME280;67046;50.088;14.336;2023-06-14T01:13:29;97372.05;;;13.21;66.12
77855;BME280;67046;50.088;14.336;2023-06-14T01:14:04;97369.23;;;13.20;66.16
77855;BME280;67046;50.088;14.336;2023-06-14T01:14:38;97370.59;;;13.21;66.21
77855;BME280;67046;50.088;14.336;2023-06-14T01:15:10;97368.75;;;13.21;66.00
77855;BME280;67046;50.088;14.336;2023-06-14T01:15:45;97371.73;;;13.21;66.08
77855;BME280;67046;50.088;14.336;2023-06-14T01:16:18;97370.93;;;13.22;66.22
77855;BME280;67046;50.088;14.336;2023-06-14T01:16:52;97371.08;;;13.22;66.07
77855;BME280;67046;50.088;14.336;2023-06-14T01:17:25;97370.45;;;13.21;65.91
77855;BME280;67046;50.088;14.336;2023-06-14T01:17:58;97374.84;;;13.21;66.14
77855;BME280;67046;50.088;14.336;2023-06-14T01:18:37;97370.27;;;13.20;65.84
77855;BME280;67046;50.088;14.336;2023-06-14T01:19:11;97374.84;;;13.20;66.11
77855;BME280;67046;50.088;14.336;2023-06-14T01:19:45;97374.05;;;13.20;65.92
77855;BME280;67046;50.088;14.336;2023-06-14T01:20:19;97373.09;;;13.18;65.87
77855;BME280;67046;50.088;14.336;2023-06-14T01:20:51;97371.80;;;13.16;65.95
77855;BME280;67046;50.088;14.336;2023-06-14T01:21:26;97370.09;;;13.13;66.17
77855;BME280;67046;50.088;14.336;2023-06-14T01:22:01;97372.73;;;13.12;66.33
77855;BME280;67046;50.088;14.336;2023-06-14T01:22:33;97371.34;;;13.10;66.19
77855;BME280;67046;50.088;14.336;2023-06-14T01:23:04;97373.77;;;13.09;66.08
77855;BME280;67046;50.088;14.336;2023-06-14T01:23:37;97374.04;;;13.08;66.17
77855;BME280;67046;50.088;14.336;2023-06-14T01:24:09;97372.89;;;13.07;66.18
77855;BME280;67046;50.088;14.336;2023-06-14T01:24:42;97374.46;;;13.06;66.32
77855;BME280;67046;50.088;14.336;2023-06-14T01:25:16;97371.91;;;13.05;66.15
77855;BME280;67046;50.088;14.336;2023-06-14T01:25:52;97374.30;;;13.05;66.61
77855;BME280;67046;50.088;14.336;2023-06-14T01:26:24;97372.39;;;13.03;66.51
77855;BME280;67046;50.088;14.336;2023-06-14T01:26:59;97369.36;;;13.04;66.24
77855;BME280;67046;50.088;14.336;2023-06-14T01:27:31;97373.23;;;13.04;66.60
77855;BME280;67046;50.088;14.336;2023-06-14T01:28:10;97371.10;;;13.03;66.47
77855;BME280;67046;50.088;14.336;2023-06-14T01:28:44;97369.41;;;13.02;66.55
77855;BME280;67046;50.088;14.336;2023-06-14T01:29:20;97373.92;;;13.03;66.78
77855;BME280;67046;50.088;14.336;2023-06-14T01:29:53;97371.80;;;13.03;66.30
77855;BME280;67046;50.088;14.336;2023-06-14T01:30:29;97369.69;;;13.04;66.54
77855;BME280;67046;50.088;14.336;2023-06-14T01:31:03;97373.94;;;13.05;66.31
77855;BME280;67046;50.088;14.336;2023-06-14T01:31:36;97372.86;;;13.06;66.64
77855;BME280;67046;50.088;14.336;2023-06-14T01:32:13;97371.66;;;13.06;66.56
77855;BME280;67046;50.088;14.336;2023-06-14T01:32:46;97371.77;;;13.06;66.88
77855;BME280;67046;50.088;14.336;2023-06-14T01:33:21;97371.48;;;13.07;66.73
77855;BME280;67046;50.088;14.336;2023-06-14T01:33:54;97369.34;;;13.07;66.94
77855;BME280;67046;50.088;14.336;2023-06-14T01:34:26;97369.67;;;13.07;66.79
77855;BME280;67046;50.088;14.336;2023-06-14T01:34:58;97368.38;;;13.06;66.97
77855;BME280;67046;50.088;14.336;2023-06-14T01:35:31;97371.84;;;13.07;67.01
77855;BME280;67046;50.088;14.336;2023-06-14T01:36:05;97371.19;;;13.06;66.68
77855;BME280;67046;50.088;14.336;2023-06-14T01:36:40;97369.89;;;13.06;67.25
77855;BME280;67046;50.088;14.336;2023-06-14T01:37:13;97372.61;;;13.06;67.23
77855;BME280;67046;50.088;14.336;2023-06-14T01:37:48;97372.88;;;13.05;67.19
77855;BME280;67046;50.088;14.336;2023-06-14T01:38:23;97372.82;;;13.04;67.04
77855;BME280;67046;50.088;14.336;2023-06-14T01:38:56;97371.00;;;13.03;67.19
77855;BME280;67046;50.088;14.336;2023-06-14T01:39:30;97370.41;;;13.03;67.02
77855;BME280;67046;50.088;14.336;2023-06-14T01:40:05;97369.67;;;13.03;67.23
77855;BME280;67046;50.088;14.336;2023-06-14T01:40:39;97373.71;;;13.03;67.25
77855;BME280;67046;50.088;14.336;2023-06-14T01:41:11;97373.86;;;13.03;67.03
77855;BME280;67046;50.088;14.336;2023-06-14T01:41:43;97371.38;;;13.03;67.32
77855;BME280;67046;50.088;14.336;2023-06-14T01:42:17;97376.56;;;13.02;67.50
77855;BME280;67046;50.088;14.336;2023-06-14T01:42:50;97373.05;;;13.01;67.44
77855;BME280;67046;50.088;14.336;2023-06-14T01:43:23;97375.46;;;13.01;67.49
77855;BME280;67046;50.088;14.336;2023-06-14T01:43:56;97378.48;;;13.01;67.36
77855;BME280;67046;50.088;14.336;2023-06-14T01:44:30;97373.33;;;13.01;67.46
77855;BME280;67046;50.088;14.336;2023-06-14T01:45:04;97372.64;;;13.01;67.55
77855;BME280;67046;50.088;14.336;2023-06-14T01:45:37;97375.23;;;13.00;67.44
77855;BME280;67046;50.088;14.336;2023-06-14T01:46:10;97372.42;;;12.99;67.70
77855;BME280;67046;50.088;14.336;2023-06-14T01:46:44;97375.45;;;12.99;67.64
77855;BME280;67046;50.088;14.336;2023-06-14T01:47:16;97371.14;;;12.99;67.56
77855;BME280;67046;50.088;14.336;2023-06-14T01:47:49;97368.38;;;12.99;67.50
77855;BME280;67046;50.088;14.336;2023-06-14T01:48:21;97370.77;;;12.99;67.51
77855;BME280;67046;50.088;14.336;2023-06-14T01:48:54;97369.02;;;13.00;67.72
77855;BME280;67046;50.088;14.336;2023-06-14T01:49:27;97368.16;;;12.99;67.69
77855;BME280;67046;50.088;14.336;2023-06-14T01:49:59;97367.42;;;13.00;67.77
77855;BME280;67046;50.088;14.336;2023-06-14T01:50:31;97369.70;;;12.98;67.57
77855;BME280;67046;50.088;14.336;2023-06-14T01:51:03;97367.27;;;12.96;67.82
77855;BME280;67046;50.088;14.336;2023-06-14T01:51:35;97367.67;;;12.94;67.84
77855;BME280;67046;50.088;14.336;2023-06-14T01:52:07;97364.59;;;12.93;67.64
77855;BME280;67046;50.088;14.336;2023-06-14T01:52:41;97369.25;;;12.93;67.67
77855;BME280;67046;50.088;14.336;2023-06-14T01:53:13;97370.69;;;12.94;67.84
77855;BME280;67046;50.088;14.336;2023-06-14T01:53:45;97367.55;;;12.94;67.75
77855;BME280;67046;50.088;14.336;2023-06-14T01:54:18;97370.42;;;12.93;68.04
77855;BME280;67046;50.088;14.336;2023-06-14T01:54:51;97367.50;;;12.93;67.58
77855;BME280;67046;50.088;14.336;2023-06-14T01:55:23;97368.77;;;12.93;67.75
77855;BME280;67046;50.088;14.336;2023-06-14T01:55:59;97371.09;;;12.93;67.93
77855;BME280;67046;50.088;14.336;2023-06-14T01:56:31;97371.83;;;12.92;67.86
77855;BME280;67046;50.088;14.336;2023-06-14T01:57:04;97369.66;;;12.92;67.79
77855;BME280;67046;50.088;14.336;2023-06-14T01:57:39;97370.56;;;12.91;67.40
77855;BME280;67046;50.088;14.336;2023-06-14T01:58:11;97373.00;;;12.91;67.59
77855;BME280;67046;50.088;14.336;2023-06-14T01:58:43;97370.35;;;12.91;67.71
77855;BME280;67046;50.088;14.336;2023-06-14T01:59:15;97372.52;;;12.90;67.50
77855;BME280;67046;50.088;14.336;2023-06-14T01:59:47;97370.73;;;12.90;67.78
77855;BME280;67046;50.088;14.336;2023-06-14T02:00:20;97368.48;;;12.90;67.75
77855;BME280;67046;50.088;14.336;2023-06-14T02:00:53;97372.80;;;12.91;68.00
77855;BME280;67046;50.088;14.336;2023-06-14T02:01:26;97369.51;;;12.90;67.88
77855;BME280;67046;50.088;14.336;2023-06-14T02:01:58;97368.91;;;12.91;67.58
77855;BME280;67046;50.088;14.336;2023-06-14T02:02:30;97372.16;;;12.92;67.91
77855;BME280;67046;50.088;14.336;2023-06-14T02:03:02;97372.74;;;12.92;67.86
77855;BME280;67046;50.088;14.336;2023-06-14T02:03:37;97370.57;;;12.92;68.16
77855;BME280;67046;50.088;14.336;2023-06-14T02:04:10;97370.62;;;12.92;68.19
77855;BME280;67046;50.088;14.336;2023-06-14T02:04:42;97371.57;;;12.92;68.09
77855;BME280;67046;50.088;14.336;2023-06-14T02:05:14;97372.16;;;12.91;68.34
77855;BME280;67046;50.088;14.336;2023-06-14T02:05:50;97373.21;;;12.90;68.49
77855;BME280;67046;50.088;14.336;2023-06-14T02:06:24;97377.93;;;12.90;68.48
77855;BME280;67046;50.088;14.336;2023-06-14T02:06:58;97373.95;;;12.88;68.61
77855;BME280;67046;50.088;14.336;2023-06-14T02:07:30;97370.75;;;12.87;68.19
77855;BME280;67046;50.088;14.336;2023-06-14T02:08:02;97374.77;;;12.84;68.52
77855;BME280;67046;50.088;14.336;2023-06-14T02:08:34;97374.59;;;12.83;68.50
77855;BME280;67046;50.088;14.336;2023-06-14T02:09:06;97374.55;;;12.83;68.37
77855;BME280;67046;50.088;14.336;2023-06-14T02:09:38;97375.55;;;12.83;68.16
77855;BME280;67046;50.088;14.336;2023-06-14T02:10:10;97374.86;;;12.83;68.39
77855;BME280;67046;50.088;14.336;2023-06-14T02:10:42;97374.06;;;12.83;68.74
77855;BME280;67046;50.088;14.336;2023-06-14T02:11:14;97374.06;;;12.83;68.59
77855;BME280;67046;50.088;14.336;2023-06-14T02:11:46;97379.47;;;12.84;68.56
77855;BME280;67046;50.088;14.336;2023-06-14T02:12:18;97376.19;;;12.83;68.51
77855;BME280;67046;50.088;14.336;2023-06-14T02:12:50;97376.25;;;12.83;68.29
77855;BME280;67046;50.088;14.336;2023-06-14T02:13:22;97375.38;;;12.82;68.71
77855;BME280;67046;50.088;14.336;2023-06-14T02:13:55;97379.63;;;12.82;68.72
77855;BME280;67046;50.088;14.336;2023-06-14T02:14:27;97376.49;;;12.81;68.80
77855;BME280;67046;50.088;14.336;2023-06-14T02:14:59;97377.48;;;12.80;68.55
77855;BME280;67046;50.088;14.336;2023-06-14T02:15:30;97377.86;;;12.80;68.57
77855;BME280;67046;50.088;14.336;2023-06-14T02:16:05;97376.96;;;12.80;68.83
77855;BME280;67046;50.088;14.336;2023-06-14T02:16:37;97380.94;;;12.80;68.98
77855;BME280;67046;50.088;14.336;2023-06-14T02:17:10;97382.10;;;12.80;68.85
77855;BME280;67046;50.088;14.336;2023-06-14T02:17:43;97379.93;;;12.80;69.13
77855;BME280;67046;50.088;14.336;2023-06-14T02:18:15;97379.02;;;12.80;68.96
77855;BME280;67046;50.088;14.336;2023-06-14T02:18:48;97380.25;;;12.80;68.96
77855;BME280;67046;50.088;14.336;2023-06-14T02:19:20;97381.09;;;12.80;69.12
77855;BME280;67046;50.088;14.336;2023-06-14T02:19:53;97381.36;;;12.80;69.03
77855;BME280;67046;50.088;14.336;2023-06-14T02:20:25;97382.31;;;12.80;69.02
77855;BME280;67046;50.088;14.336;2023-06-14T02:20:57;97380.09;;;12.80;69.02
77855;BME280;67046;50.088;14.336;2023-06-14T02:21:29;97378.59;;;12.79;69.15
77855;BME280;67046;50.088;14.336;2023-06-14T02:22:01;97381.05;;;12.79;69.26
77855;BME280;67046;50.088;14.336;2023-06-14T02:22:33;97380.66;;;12.78;69.50
77855;BME280;67046;50.088;14.336;2023-06-14T02:23:05;97379.59;;;12.77;69.25
77855;BME280;67046;50.088;14.336;2023-06-14T02:23:39;97379.70;;;12.77;69.25
77855;BME280;67046;50.088;14.336;2023-06-14T02:24:12;97384.58;;;12.76;69.40
77855;BME280;67046;50.088;14.336;2023-06-14T02:24:44;97381.98;;;12.76;69.38
77855;BME280;67046;50.088;14.336;2023-06-14T02:25:17;97380.41;;;12.75;69.21
77855;BME280;67046;50.088;14.336;2023-06-14T02:25:49;97382.33;;;12.74;69.33
77855;BME280;67046;50.088;14.336;2023-06-14T02:26:21;97382.06;;;12.73;69.33
77855;BME280;67046;50.088;14.336;2023-06-14T02:26:54;97384.13;;;12.73;69.20
77855;BME280;67046;50.088;14.336;2023-06-14T02:27:26;97378.61;;;12.73;69.37
77855;BME280;67046;50.088;14.336;2023-06-14T02:27:58;97380.45;;;12.72;69.59
77855;BME280;67046;50.088;14.336;2023-06-14T02:28:30;97382.90;;;12.71;69.54
77855;BME280;67046;50.088;14.336;2023-06-14T02:29:02;97380.09;;;12.71;69.36
77855;BME280;67046;50.088;14.336;2023-06-14T02:29:35;97383.27;;;12.72;69.42
77855;BME280;67046;50.088;14.336;2023-06-14T02:30:08;97379.10;;;12.73;69.25
77855;BME280;67046;50.088;14.336;2023-06-14T02:30:40;97383.45;;;12.73;69.41
77855;BME280;67046;50.088;14.336;2023-06-14T02:31:12;97380.27;;;12.74;69.31
77855;BME280;67046;50.088;14.336;2023-06-14T02:31:45;97382.27;;;12.73;69.43
77855;BME280;67046;50.088;14.336;2023-06-14T02:32:19;97381.27;;;12.73;69.50
77855;BME280;67046;50.088;14.336;2023-06-14T02:32:51;97381.27;;;12.74;69.10
77855;BME280;67046;50.088;14.336;2023-06-14T02:33:25;97381.27;;;12.74;69.08
77855;BME280;67046;50.088;14.336;2023-06-14T02:33:57;97381.84;;;12.74;69.05
77855;BME280;67046;50.088;14.336;2023-06-14T02:34:29;97380.65;;;12.75;69.44
77855;BME280;67046;50.088;14.336;2023-06-14T02:35:02;97382.71;;;12.76;69.48
77855;BME280;67046;50.088;14.336;2023-06-14T02:35:34;97386.64;;;12.75;69.42
77855;BME280;67046;50.088;14.336;2023-06-14T02:36:06;97384.84;;;12.76;69.66
77855;BME280;67046;50.088;14.336;2023-06-14T02:36:38;97382.42;;;12.73;69.58
77855;BME280;67046;50.088;14.336;2023-06-14T02:37:13;97385.83;;;12.71;69.59
77855;BME280;67046;50.088;14.336;2023-06-14T02:37:45;97387.45;;;12.69;69.60
77855;BME280;67046;50.088;14.336;2023-06-14T02:38:17;97388.23;;;12.69;69.73
77855;BME280;67046;50.088;14.336;2023-06-14T02:38:49;97390.20;;;12.69;70.00
77855;BME280;67046;50.088;14.336;2023-06-14T02:39:21;97389.24;;;12.67;69.81
77855;BME280;67046;50.088;14.336;2023-06-14T02:39:55;97388.91;;;12.67;69.65
77855;BME280;67046;50.088;14.336;2023-06-14T02:40:28;97389.16;;;12.67;69.79
77855;BME280;67046;50.088;14.336;2023-06-14T02:41:00;97390.31;;;12.66;69.75
77855;BME280;67046;50.088;14.336;2023-06-14T02:41:33;97393.30;;;12.66;69.65
77855;BME280;67046;50.088;14.336;2023-06-14T02:42:05;97390.22;;;12.66;69.52
77855;BME280;67046;50.088;14.336;2023-06-14T02:42:38;97394.41;;;12.66;69.87
77855;BME280;67046;50.088;14.336;2023-06-14T02:43:10;97392.77;;;12.66;69.89
77855;BME280;67046;50.088;14.336;2023-06-14T02:43:42;97394.00;;;12.67;69.75
77855;BME280;67046;50.088;14.336;2023-06-14T02:44:14;97393.06;;;12.68;69.42
77855;BME280;67046;50.088;14.336;2023-06-14T02:44:49;97393.86;;;12.68;69.72
77855;BME280;67046;50.088;14.336;2023-06-14T02:45:23;97393.42;;;12.69;69.48
77855;BME280;67046;50.088;14.336;2023-06-14T02:45:55;97398.26;;;12.69;69.32
77855;BME280;67046;50.088;14.336;2023-06-14T02:46:27;97394.81;;;12.70;69.37
77855;BME280;67046;50.088;14.336;2023-06-14T02:46:58;97394.73;;;12.70;69.81
77855;BME280;67046;50.088;14.336;2023-06-14T02:47:32;97393.39;;;12.70;69.63
77855;BME280;67046;50.088;14.336;2023-06-14T02:48:04;97394.11;;;12.69;69.78
77855;BME280;67046;50.088;14.336;2023-06-14T02:48:37;97396.29;;;12.69;69.49
77855;BME280;67046;50.088;14.336;2023-06-14T02:49:10;97393.22;;;12.68;69.54
77855;BME280;67046;50.088;14.336;2023-06-14T02:49:42;97396.29;;;12.67;69.50
77855;BME280;67046;50.088;14.336;2023-06-14T02:50:14;97395.23;;;12.67;69.53
77855;BME280;67046;50.088;14.336;2023-06-14T02:50:46;97395.16;;;12.67;69.29
77855;BME280;67046;50.088;14.336;2023-06-14T02:51:18;97394.17;;;12.68;69.45
77855;BME280;67046;50.088;14.336;2023-06-14T02:51:50;97395.11;;;12.67;69.64
77855;BME280;67046;50.088;14.336;2023-06-14T02:52:22;97396.55;;;12.67;69.62
77855;BME280;67046;50.088;14.336;2023-06-14T02:52:54;97393.09;;;12.66;69.52
77855;BME280;67046;50.088;14.336;2023-06-14T02:53:28;97396.64;;;12.66;69.61
77855;BME280;67046;50.088;14.336;2023-06-14T02:54:00;97396.69;;;12.66;69.72
77855;BME280;67046;50.088;14.336;2023-06-14T02:54:32;97397.96;;;12.66;69.29
77855;BME280;67046;50.088;14.336;2023-06-14T02:55:04;97398.29;;;12.66;69.53
77855;BME280;67046;50.088;14.336;2023-06-14T02:55:37;97398.23;;;12.65;69.53
77855;BME280;67046;50.088;14.336;2023-06-14T02:56:11;97401.35;;;12.66;69.84
77855;BME280;67046;50.088;14.336;2023-06-14T02:56:44;97398.17;;;12.66;69.74